createdAt,value
2023-08-02T00:01:59.874Z,97031.03
2023-08-02T00:04:31.554Z,97035.66
2023-08-02T00:07:05.610Z,97032.72
2023-08-02T00:09:37.877Z,97030.38
2023-08-02T00:12:10.772Z,97036.00
2023-08-02T00:14:41.524Z,97041.91
2023-08-02T00:17:13.437Z,97037.44
2023-08-02T00:19:48.967Z,97038.00
2023-08-02T00:22:20.469Z,97034.66
2023-08-02T00:24:51.508Z,97047.72
2023-08-02T00:27:25.312Z,97045.22
2023-08-02T00:29:56.405Z,97044.84
2023-08-02T00:32:27.686Z,97055.53
2023-08-02T00:34:59.052Z,97050.78
2023-08-02T00:37:33.950Z,97057.44
2023-08-02T00:40:06.745Z,97062.41
2023-08-02T00:42:41.899Z,97058.63
2023-08-02T00:45:13.307Z,97059.47
2023-08-02T00:47:43.830Z,97068.06
2023-08-02T00:50:14.532Z,97071.41
2023-08-02T00:52:45.169Z,97076.81
2023-08-02T00:55:15.860Z,97078.72
2023-08-02T00:57:46.711Z,97074.94
2023-08-02T01:00:17.508Z,97077.44
2023-08-02T01:02:48.549Z,97082.03
2023-08-02T01:05:20.388Z,97087.84
2023-08-02T01:08:01.778Z,97078.56
2023-08-02T01:10:48.587Z,97081.63
2023-08-02T01:13:21.786Z,97092.75
2023-08-02T01:15:52.596Z,97092.50
2023-08-02T01:18:23.747Z,97090.41
2023-08-02T01:20:54.820Z,97095.38
2023-08-02T01:23:25.989Z,97093.19
2023-08-02T01:26:02.935Z,97100.72
2023-08-02T01:28:40.480Z,97101.25
2023-08-02T01:31:14.180Z,97098.59
2023-08-02T01:33:56.584Z,97098.38
2023-08-02T01:36:27.602Z,97098.81
2023-08-02T01:38:58.794Z,97101.34
2023-08-02T01:41:29.630Z,97114.06
2023-08-02T01:44:04.477Z,97105.69
2023-08-02T01:46:35.588Z,97108.03
2023-08-02T01:49:06.892Z,97107.06
2023-08-02T01:51:38.256Z,97103.78
2023-08-02T01:54:10.067Z,97107.28
2023-08-02T01:56:42.574Z,97115.41
2023-08-02T01:59:14.975Z,97117.75
2023-08-02T02:01:45.973Z,97113.53
2023-08-02T02:04:17.040Z,97120.03
2023-08-02T02:06:48.442Z,97121.53
2023-08-02T02:09:19.983Z,97124.34
2023-08-02T02:11:51.963Z,97121.59
2023-08-02T02:14:26.723Z,97118.97
2023-08-02T02:16:57.766Z,97120.66
2023-08-02T02:19:28.875Z,97130.91
2023-08-02T02:21:59.853Z,97126.97
2023-08-02T02:24:31.095Z,97126.81
2023-08-02T02:27:02.117Z,97117.78
2023-08-02T02:29:33.086Z,97120.16
2023-08-02T02:32:03.751Z,97130.72
2023-08-02T02:34:34.693Z,97129.25
2023-08-02T02:37:05.452Z,97121.69
2023-08-02T02:39:36.397Z,97128.47
2023-08-02T02:42:07.780Z,97119.59
2023-08-02T02:44:45.891Z,97124.63
2023-08-02T02:47:17.077Z,97119.00
2023-08-02T02:49:49.586Z,97120.81
2023-08-02T02:52:20.378Z,97126.31
2023-08-02T02:54:51.290Z,97128.16
2023-08-02T02:57:21.902Z,97129.34
2023-08-02T02:59:53.719Z,97131.69
2023-08-02T03:02:24.257Z,97127.31
2023-08-02T03:04:55.525Z,97132.06
2023-08-02T03:07:26.136Z,97132.19
2023-08-02T03:09:56.931Z,97126.75
2023-08-02T03:12:27.595Z,97135.06
2023-08-02T03:14:58.694Z,97146.00
2023-08-02T03:17:30.307Z,97131.63
2023-08-02T03:20:01.225Z,97141.72
2023-08-02T03:22:32.104Z,97139.75
2023-08-02T03:25:02.973Z,97143.69
2023-08-02T03:27:33.728Z,97146.69
2023-08-02T03:30:08.116Z,97143.69
2023-08-02T03:32:39.182Z,97134.66
2023-08-02T03:35:10.235Z,97135.81
2023-08-02T03:37:40.957Z,97145.44
2023-08-02T03:40:12.771Z,97142.13
2023-08-02T03:42:44.074Z,97150.59
2023-08-02T03:45:14.931Z,97147.78
2023-08-02T03:47:45.687Z,97157.06
2023-08-02T03:50:16.830Z,97152.09
2023-08-02T03:52:48.438Z,97161.72
2023-08-02T03:55:19.680Z,97153.41
2023-08-02T03:57:50.511Z,97160.88
2023-08-02T04:00:21.638Z,97153.06
2023-08-02T04:02:53.115Z,97157.38
2023-08-02T04:05:24.646Z,97156.22
2023-08-02T04:07:56.067Z,97162.03
2023-08-02T04:10:27.718Z,97160.66
2023-08-02T04:12:58.779Z,97165.75
2023-08-02T04:15:29.979Z,97161.91
2023-08-02T04:18:01.754Z,97164.56
2023-08-02T04:20:33.783Z,97175.06
2023-08-02T04:23:04.670Z,97172.50
2023-08-02T04:25:35.524Z,97176.97
2023-08-02T04:28:06.589Z,97179.38
2023-08-02T04:30:37.963Z,97183.34
2023-08-02T04:33:09.080Z,97190.22
2023-08-02T04:35:40.342Z,97188.81
2023-08-02T04:38:12.112Z,97185.97
2023-08-02T04:40:42.986Z,97177.69
2023-08-02T04:43:13.306Z,97184.44
2023-08-02T04:45:43.871Z,97175.47
2023-08-02T04:48:14.335Z,97188.59
2023-08-02T04:50:46.313Z,97180.19
2023-08-02T04:53:16.899Z,97185.16
2023-08-02T04:55:48.540Z,97181.72
2023-08-02T04:58:19.094Z,97183.84
2023-08-02T05:00:49.686Z,97187.97
2023-08-02T05:03:20.292Z,97186.47
2023-08-02T05:05:52.296Z,97195.09
2023-08-02T05:08:22.825Z,97189.34
2023-08-02T05:10:53.434Z,97187.25
2023-08-02T05:13:26.067Z,97189.41
2023-08-02T05:15:58.835Z,97193.16
2023-08-02T05:18:29.451Z,97193.44
2023-08-02T05:21:03.982Z,97189.88
2023-08-02T05:23:43.278Z,97191.63
2023-08-02T05:26:15.514Z,97193.16
2023-08-02T05:28:46.006Z,97187.56
2023-08-02T05:31:17.887Z,97190.81
2023-08-02T05:33:50.921Z,97190.38
2023-08-02T05:36:21.651Z,97198.00
2023-08-02T05:38:52.337Z,97195.56
2023-08-02T05:41:22.802Z,97191.16
2023-08-02T05:43:56.269Z,97189.97
2023-08-02T05:46:26.602Z,97197.63
2023-08-02T05:48:57.076Z,97201.56
2023-08-02T05:51:28.001Z,97206.16
2023-08-02T05:53:58.572Z,97202.56
2023-08-02T05:56:35.603Z,97205.13
2023-08-02T06:02:34.275Z,97201.22
2023-08-02T06:05:22.891Z,97198.56
2023-08-02T06:10:59.076Z,97198.44
2023-08-02T06:13:31.710Z,97191.44
2023-08-02T06:16:02.161Z,97193.38
2023-08-02T06:18:33.108Z,97188.31
2023-08-02T06:21:03.533Z,97195.75
2023-08-02T06:23:33.913Z,97191.66
2023-08-02T06:26:04.626Z,97191.59
2023-08-02T06:28:35.439Z,97200.63
2023-08-02T06:31:08.416Z,97183.59
2023-08-02T06:33:41.945Z,97193.44
2023-08-02T06:36:13.323Z,97192.66
2023-08-02T06:38:44.359Z,97188.88
2023-08-02T06:41:15.239Z,97190.97
2023-08-02T06:43:45.841Z,97185.63
2023-08-02T06:46:41.274Z,97183.03
2023-08-02T06:49:30.530Z,97191.09
2023-08-02T06:52:05.960Z,97185.31
2023-08-02T06:54:38.825Z,97184.50
2023-08-02T06:57:18.003Z,97179.91
2023-08-02T06:59:59.115Z,97181.09
2023-08-02T07:02:38.409Z,97171.22
2023-08-02T07:05:10.925Z,97174.63
2023-08-02T07:07:43.864Z,97174.88
2023-08-02T07:10:20.462Z,97178.13
2023-08-02T07:12:57.571Z,97175.94
2023-08-02T07:15:30.141Z,97174.06
2023-08-02T07:18:07.156Z,97167.44
2023-08-02T07:20:37.871Z,97172.75
2023-08-02T07:23:08.316Z,97168.88
2023-08-02T07:25:39.188Z,97162.50
2023-08-02T07:28:09.742Z,97159.84
2023-08-02T07:30:44.139Z,97161.97
2023-08-02T07:33:18.082Z,97152.28
2023-08-02T07:35:49.415Z,97147.66
2023-08-02T07:38:20.109Z,97147.50
2023-08-02T07:40:50.899Z,97142.56
2023-08-02T07:43:35.228Z,97146.75
2023-08-02T07:46:18.127Z,97138.19
2023-08-02T07:48:49.059Z,97140.63
2023-08-02T07:51:20.085Z,97136.94
2023-08-02T07:53:52.432Z,97141.88
2023-08-02T07:56:23.941Z,97141.94
2023-08-02T07:58:54.283Z,97134.84
2023-08-02T08:01:24.916Z,97125.91
2023-08-02T08:03:55.675Z,97127.56
2023-08-02T08:06:29.183Z,97123.44
2023-08-02T08:08:59.818Z,97123.78
2023-08-02T08:11:31.634Z,97121.75
2023-08-02T08:14:01.571Z,97123.69
2023-08-02T08:16:35.375Z,97120.34
2023-08-02T08:19:06.076Z,97115.25
2023-08-02T08:21:40.746Z,97109.91
2023-08-02T08:24:12.858Z,97117.31
2023-08-02T08:26:43.653Z,97105.19
2023-08-02T08:29:14.548Z,97104.97
2023-08-02T08:31:45.831Z,97100.66
2023-08-02T08:34:16.624Z,97106.34
2023-08-02T08:36:50.476Z,97101.59
2023-08-02T08:39:22.019Z,97096.59
2023-08-02T08:44:51.955Z,97080.75
2023-08-02T08:47:23.492Z,97077.09
2023-08-02T08:49:54.847Z,97060.63
2023-08-02T08:52:25.474Z,97056.91
2023-08-02T08:54:56.439Z,97051.16
2023-08-02T08:57:27.630Z,97054.84
2023-08-02T08:59:59.434Z,97047.53
2023-08-02T09:02:32.141Z,97048.28
2023-08-02T09:05:08.031Z,97036.66
2023-08-02T09:07:38.549Z,97032.50
2023-08-02T09:10:09.831Z,97030.09
2023-08-02T09:12:49.406Z,97031.00
2023-08-02T09:15:20.588Z,97026.75
2023-08-02T09:18:00.560Z,97016.28
2023-08-02T09:20:33.989Z,97010.97
2023-08-02T09:23:22.058Z,97014.06
2023-08-02T09:26:25.141Z,97013.47
2023-08-02T09:29:06.416Z,97007.47
2023-08-02T09:31:42.162Z,97004.81
2023-08-02T09:34:12.916Z,96998.44
2023-08-02T09:36:43.607Z,96996.38
2023-08-02T09:39:19.466Z,96988.56
2023-08-02T09:41:58.893Z,96981.97
2023-08-02T09:44:31.376Z,96979.47
2023-08-02T09:47:12.129Z,96979.09
2023-08-02T09:49:42.689Z,96970.00
2023-08-02T09:52:13.699Z,96973.72
2023-08-02T09:54:44.212Z,96966.53
2023-08-02T09:57:14.925Z,96968.75
2023-08-02T09:59:48.520Z,96961.78
2023-08-02T10:02:20.626Z,96952.31
2023-08-02T10:04:52.759Z,96953.38
2023-08-02T10:07:24.208Z,96950.28
2023-08-02T10:10:01.149Z,96944.69
2023-08-02T10:12:55.361Z,96942.44
2023-08-02T10:15:36.567Z,96940.13
2023-08-02T10:18:08.774Z,96942.09
2023-08-02T10:20:46.507Z,96944.53
2023-08-02T10:23:24.536Z,96941.13
2023-08-02T10:25:56.442Z,96939.47
2023-08-02T10:28:28.003Z,96936.00
2023-08-02T10:30:58.985Z,96939.06
2023-08-02T10:33:31.168Z,96949.09
2023-08-02T10:36:10.001Z,96949.31
2023-08-02T10:38:55.458Z,96954.03
2023-08-02T10:41:32.872Z,96949.56
2023-08-02T10:44:25.286Z,96943.13
2023-08-02T10:47:38.671Z,96943.22
2023-08-02T10:50:10.355Z,96932.88
2023-08-02T10:52:45.008Z,96936.22
2023-08-02T10:55:21.409Z,96937.03
2023-08-02T10:57:58.072Z,96935.13
2023-08-02T11:00:34.627Z,96939.34
2023-08-02T11:03:08.283Z,96925.88
2023-08-02T11:05:46.315Z,96934.72
2023-08-02T11:08:17.038Z,96928.88
2023-08-02T11:10:57.376Z,96924.38
2023-08-02T11:13:43.390Z,96918.00
2023-08-02T11:16:15.647Z,96919.16
2023-08-02T11:18:47.581Z,96919.66
2023-08-02T11:21:18.035Z,96925.06
2023-08-02T11:26:26.829Z,96919.22
2023-08-02T11:28:57.392Z,96920.31
2023-08-02T11:31:31.351Z,96932.75
2023-08-02T11:34:01.921Z,96935.88
2023-08-02T11:36:57.237Z,96936.38
2023-08-02T11:39:29.435Z,96937.81
2023-08-02T11:42:07.532Z,96939.81
2023-08-02T11:44:39.328Z,96937.34
2023-08-02T11:47:12.784Z,96943.59
2023-08-02T11:49:59.021Z,96940.03
2023-08-02T11:52:35.041Z,96945.13
2023-08-02T11:55:05.912Z,96950.16
2023-08-02T11:57:36.833Z,96959.75
2023-08-02T12:00:11.817Z,96964.88
2023-08-02T12:02:42.395Z,96970.66
2023-08-02T12:05:22.229Z,96979.84
2023-08-02T12:07:53.250Z,96977.94
2023-08-02T12:10:31.428Z,96979.13
2023-08-02T12:13:09.552Z,96970.78
2023-08-02T12:15:40.854Z,96970.75
2023-08-02T12:18:11.728Z,96963.44
2023-08-02T12:20:45.268Z,96951.88
2023-08-02T12:23:32.827Z,96955.78
2023-08-02T12:26:06.176Z,96956.13
2023-08-02T12:28:50.579Z,96962.84
2023-08-02T12:31:26.049Z,96963.53
2023-08-02T12:33:57.299Z,96960.66
2023-08-02T12:36:31.704Z,96966.53
2023-08-02T12:39:02.447Z,96962.41
2023-08-02T12:41:33.322Z,96965.47
2023-08-02T12:44:06.027Z,96972.72
2023-08-02T12:46:37.365Z,96975.38
2023-08-02T12:49:08.240Z,96971.63
2023-08-02T12:51:41.197Z,96980.41
2023-08-02T12:54:12.142Z,96986.22
2023-08-02T12:56:42.962Z,96988.56
2023-08-02T12:59:13.872Z,96985.94
2023-08-02T13:01:47.429Z,96995.81
2023-08-02T13:04:20.417Z,96996.38
2023-08-02T13:06:55.969Z,96998.56
2023-08-02T13:09:27.641Z,97005.19
2023-08-02T13:12:07.694Z,97009.47
2023-08-02T13:14:42.205Z,97017.91
2023-08-02T13:17:15.820Z,97034.22
2023-08-02T13:19:46.608Z,97041.72
2023-08-02T13:22:18.053Z,97048.09
2023-08-02T13:24:49.549Z,97032.78
2023-08-02T13:27:19.872Z,97022.03
2023-08-02T13:29:50.641Z,97023.06
2023-08-02T13:32:21.860Z,97019.75
2023-08-02T13:34:52.461Z,97025.16
2023-08-02T13:37:23.147Z,97027.59
2023-08-02T13:39:53.863Z,97032.53
2023-08-02T13:42:27.305Z,97044.28
2023-08-02T13:44:58.998Z,97045.28
2023-08-02T13:47:29.802Z,97046.22
2023-08-02T13:50:00.351Z,97072.81
2023-08-02T13:52:31.210Z,97074.66
2023-08-02T13:55:02.057Z,97098.72
2023-08-02T13:57:32.763Z,97081.66
2023-08-02T14:00:03.561Z,97063.75
2023-08-02T14:02:34.658Z,97098.06
2023-08-02T14:05:06.780Z,97116.44
2023-08-02T14:07:38.434Z,97131.09
2023-08-02T14:10:09.656Z,97140.56
2023-08-02T14:12:43.221Z,97149.50
2023-08-02T14:15:19.799Z,97159.97
2023-08-02T14:17:50.492Z,97146.44
2023-08-02T14:20:24.528Z,97131.97
2023-08-02T14:23:10.947Z,97095.63
2023-08-02T14:25:41.561Z,97075.38
2023-08-02T14:28:15.790Z,97061.06
2023-08-02T14:30:47.047Z,97053.78
2023-08-02T14:33:26.594Z,97042.94
2023-08-02T14:35:57.846Z,97035.81
2023-08-02T14:38:34.413Z,97035.06
2023-08-02T14:41:05.078Z,97059.78
2023-08-02T14:43:39.259Z,97064.88
2023-08-02T14:46:10.890Z,97094.94
2023-08-02T14:48:41.707Z,97103.19
2023-08-02T14:51:12.806Z,97082.03
2023-08-02T14:53:44.681Z,97079.47
2023-08-02T14:56:15.997Z,97075.31
2023-08-02T14:58:46.408Z,97061.19
2023-08-02T15:01:17.240Z,97075.06
2023-08-02T15:03:49.285Z,97084.00
2023-08-02T15:06:21.786Z,97075.78
2023-08-02T15:08:52.396Z,97078.41
2023-08-02T15:11:23.166Z,97089.88
2023-08-02T15:13:53.888Z,97091.56
2023-08-02T15:16:24.947Z,97101.38
2023-08-02T15:18:56.154Z,97120.78
2023-08-02T15:21:26.745Z,97129.75
2023-08-02T15:23:57.371Z,97125.06
2023-08-02T15:26:28.213Z,97119.81
2023-08-02T15:28:59.978Z,97127.19
2023-08-02T15:31:32.710Z,97112.13
2023-08-02T15:34:03.566Z,97119.53
2023-08-02T15:36:34.459Z,97140.78
2023-08-02T15:39:06.158Z,97156.34
2023-08-02T15:41:36.559Z,97149.41
2023-08-02T15:44:07.846Z,97148.13
2023-08-02T15:46:38.663Z,97147.13
2023-08-02T15:49:13.804Z,97161.63
2023-08-02T15:51:44.407Z,97180.28
2023-08-02T15:54:16.526Z,97180.50
2023-08-02T15:56:46.995Z,97185.03
2023-08-02T15:59:20.866Z,97185.19
2023-08-02T16:01:52.185Z,97194.19
2023-08-02T16:04:23.127Z,97208.75
2023-08-02T16:06:56.994Z,97193.88
2023-08-02T16:09:30.979Z,97194.41
2023-08-02T16:12:01.412Z,97193.56
2023-08-02T16:14:32.199Z,97195.06
2023-08-02T16:17:02.728Z,97204.13
2023-08-02T16:19:34.386Z,97208.75
2023-08-02T16:22:05.135Z,97205.41
2023-08-02T16:24:35.756Z,97197.97
2023-08-02T16:27:06.550Z,97197.31
2023-08-02T16:29:37.182Z,97203.06
2023-08-02T16:32:08.041Z,97199.84
2023-08-02T16:34:38.842Z,97188.69
2023-08-02T16:37:09.661Z,97191.22
2023-08-02T16:39:41.439Z,97197.66
2023-08-02T16:42:12.534Z,97194.47
2023-08-02T16:44:43.388Z,97195.38
2023-08-02T16:47:13.824Z,97190.78
2023-08-02T16:49:44.741Z,97199.97
2023-08-02T16:52:15.105Z,97201.78
2023-08-02T16:54:46.103Z,97199.28
2023-08-02T16:57:16.803Z,97192.44
2023-08-02T16:59:47.718Z,97193.03
2023-08-02T17:02:18.279Z,97190.78
2023-08-02T17:04:49.009Z,97200.81
2023-08-02T17:07:19.641Z,97204.94
2023-08-02T17:09:50.450Z,97196.06
2023-08-02T17:12:21.166Z,97193.84
2023-08-02T17:14:53.151Z,97203.97
2023-08-02T17:17:23.678Z,97200.81
2023-08-02T17:19:54.918Z,97201.34
2023-08-02T17:22:25.456Z,97202.91
2023-08-02T17:24:56.821Z,97201.34
2023-08-02T17:27:27.193Z,97201.94
2023-08-02T17:29:58.308Z,97199.00
2023-08-02T17:32:28.798Z,97190.22
2023-08-02T17:34:59.950Z,97187.22
2023-08-02T17:37:30.327Z,97182.47
2023-08-02T17:40:01.338Z,97188.78
2023-08-02T17:42:31.729Z,97188.78
2023-08-02T17:45:02.219Z,97184.22
2023-08-02T17:47:32.691Z,97183.16
2023-08-02T17:50:03.460Z,97181.25
2023-08-02T17:52:33.943Z,97171.06
2023-08-02T17:55:04.675Z,97173.41
2023-08-02T17:57:35.414Z,97164.97
2023-08-02T18:00:08.380Z,97165.25
2023-08-02T18:02:42.263Z,97166.41
2023-08-02T18:05:13.115Z,97159.44
2023-08-02T18:07:43.844Z,97153.03
2023-08-02T18:10:16.024Z,97141.78
2023-08-02T18:12:46.439Z,97136.34
2023-08-02T18:15:20.128Z,97136.03
2023-08-02T18:17:50.681Z,97125.63
2023-08-02T18:20:21.472Z,97126.06
2023-08-02T18:22:51.834Z,97138.13
2023-08-02T18:25:22.414Z,97128.28
2023-08-02T18:27:53.741Z,97127.97
2023-08-02T18:30:24.561Z,97137.03
2023-08-02T18:32:56.122Z,97136.34
2023-08-02T18:35:27.170Z,97137.16
2023-08-02T18:37:57.634Z,97132.19
2023-08-02T18:40:28.385Z,97130.22
2023-08-02T18:42:58.886Z,97126.59
2023-08-02T18:45:30.544Z,97133.03
2023-08-02T18:48:01.232Z,97134.22
2023-08-02T18:50:49.497Z,97133.47
2023-08-02T18:53:20.375Z,97134.09
2023-08-02T18:55:51.148Z,97141.84
2023-08-02T18:58:22.119Z,97139.13
2023-08-02T19:00:55.008Z,97134.00
2023-08-02T19:03:26.871Z,97130.22
2023-08-02T19:06:02.377Z,97136.03
2023-08-02T19:08:45.857Z,97137.41
2023-08-02T19:11:28.060Z,97144.19
2023-08-02T19:13:58.956Z,97144.88
2023-08-02T19:16:33.250Z,97141.63
2023-08-02T19:19:05.549Z,97139.00
2023-08-02T19:21:37.945Z,97140.16
2023-08-02T19:24:11.540Z,97137.78
2023-08-02T19:26:42.387Z,97141.41
2023-08-02T19:29:20.311Z,97133.91
2023-08-02T19:31:51.554Z,97136.97
2023-08-02T19:34:23.971Z,97145.28
2023-08-02T19:36:55.749Z,97148.38
2023-08-02T19:39:41.098Z,97148.63
2023-08-02T19:42:16.073Z,97135.69
2023-08-02T19:44:53.571Z,97155.97
2023-08-02T19:47:31.611Z,97152.94
2023-08-02T19:50:02.977Z,97149.22
2023-08-02T19:52:34.292Z,97150.84
2023-08-02T19:55:08.986Z,97158.28
2023-08-02T19:57:45.548Z,97153.50
2023-08-02T20:00:21.286Z,97145.56
2023-08-02T20:02:52.838Z,97152.28
2023-08-02T20:05:48.717Z,97153.63
2023-08-02T20:08:23.704Z,97144.59
2023-08-02T20:10:57.675Z,97132.00
2023-08-02T20:13:40.350Z,97126.53
2023-08-02T20:16:16.586Z,97130.31
2023-08-02T20:18:50.465Z,97132.34
2023-08-02T20:21:23.522Z,97126.19
2023-08-02T20:24:07.404Z,97130.84
2023-08-02T20:26:38.535Z,97123.31
2023-08-02T20:29:09.261Z,97123.22
2023-08-02T20:31:43.783Z,97124.28
2023-08-02T20:34:15.670Z,97123.59
2023-08-02T20:36:46.755Z,97134.59
2023-08-02T20:39:19.396Z,97130.84
2023-08-02T20:41:51.640Z,97127.91
2023-08-02T20:44:28.569Z,97124.66
2023-08-02T20:46:59.888Z,97125.09
2023-08-02T20:49:33.487Z,97124.56
2023-08-02T20:52:04.014Z,97120.38
2023-08-02T20:54:35.145Z,97129.78
2023-08-02T20:57:06.376Z,97130.94
2023-08-02T20:59:39.834Z,97135.97
2023-08-02T21:02:21.682Z,97139.69
2023-08-02T21:04:52.941Z,97147.38
2023-08-02T21:07:30.133Z,97146.94
2023-08-02T21:10:00.787Z,97150.59
2023-08-02T21:12:31.521Z,97157.56
2023-08-02T21:15:02.066Z,97155.88
2023-08-02T21:17:32.499Z,97154.06
2023-08-02T21:20:27.069Z,97149.28
2023-08-02T21:22:57.795Z,97144.44
2023-08-02T21:25:28.391Z,97155.47
2023-08-02T21:27:58.755Z,97147.56
2023-08-02T21:30:29.735Z,97151.28
2023-08-02T21:33:00.219Z,97160.13
2023-08-02T21:35:32.567Z,97158.94
2023-08-02T21:38:02.273Z,97159.00
2023-08-02T21:40:33.192Z,97142.63
2023-08-02T21:43:03.655Z,97149.91
2023-08-02T21:45:34.375Z,97149.75
2023-08-02T21:48:08.741Z,97152.66
2023-08-02T21:50:39.438Z,97148.94
2023-08-02T21:53:12.336Z,97141.53
2023-08-02T21:55:43.052Z,97145.75
2023-08-02T21:58:21.256Z,97141.41
2023-08-02T22:00:55.113Z,97142.09
2023-08-02T22:03:26.291Z,97135.78
2023-08-02T22:06:04.215Z,97133.50
2023-08-02T22:30:24.133Z,97119.41
2023-08-02T22:33:14.923Z,97126.13
2023-08-02T22:35:45.446Z,97127.50
2023-08-02T22:38:15.875Z,97126.66
2023-08-02T22:40:47.760Z,97115.41
2023-08-02T22:43:18.015Z,97117.66
2023-08-02T22:45:48.430Z,97125.28
2023-08-02T22:50:56.045Z,97121.97
2023-08-02T22:53:26.955Z,97116.13
2023-08-02T22:55:58.509Z,97121.69
2023-08-02T22:58:29.122Z,97124.16
2023-08-02T23:00:59.368Z,97126.13
2023-08-02T23:03:46.152Z,97129.59
2023-08-02T23:06:28.356Z,97128.06
2023-08-02T23:08:59.480Z,97121.16
2023-08-02T23:11:30.884Z,97124.22
2023-08-02T23:14:01.079Z,97130.56
2023-08-02T23:16:31.441Z,97133.63
2023-08-02T23:19:04.856Z,97127.53
2023-08-02T23:21:38.377Z,97128.06
2023-08-02T23:24:14.717Z,97143.91
2023-08-02T23:26:44.882Z,97133.56
2023-08-02T23:29:15.320Z,97128.94
2023-08-02T23:31:46.923Z,97126.84
2023-08-02T23:34:17.615Z,97125.88
2023-08-02T23:36:47.772Z,97126.31
2023-08-02T23:39:18.392Z,97130.03
2023-08-02T23:41:48.600Z,97125.59
2023-08-02T23:44:18.892Z,97131.41
2023-08-02T23:46:49.466Z,97140.59
2023-08-02T23:49:19.796Z,97139.47
2023-08-02T23:51:50.002Z,97145.88
2023-08-02T23:54:20.368Z,97142.94
2023-08-02T23:56:50.536Z,97146.69
2023-08-02T23:59:21.117Z,97143.59
